createdAt,value
2024-01-24T00:00:33.915Z,101018.38
2024-01-24T00:03:35.783Z,101025.41
2024-01-24T00:06:37.772Z,101024.50
2024-01-24T00:09:39.679Z,101008.69
2024-01-24T00:12:41.590Z,101028.09
2024-01-24T00:15:44.819Z,101030.53
2024-01-24T00:18:46.638Z,101023.59
2024-01-24T00:21:48.418Z,101024.47
2024-01-24T00:24:50.355Z,101011.28
2024-01-24T00:27:52.185Z,101009.25
2024-01-24T00:30:55.339Z,101003.59
2024-01-24T00:33:57.405Z,101001.50
2024-01-24T00:36:59.225Z,101004.97
2024-01-24T00:40:00.999Z,101002.09
2024-01-24T00:43:02.774Z,101004.97
2024-01-24T00:46:06.309Z,100989.25
2024-01-24T00:49:10.000Z,100982.53
2024-01-24T00:52:11.874Z,100973.25
2024-01-24T00:55:13.744Z,100982.56
2024-01-24T00:58:15.481Z,100963.47
2024-01-24T01:01:18.671Z,100983.16
2024-01-24T01:04:22.858Z,100967.00
2024-01-24T01:07:24.695Z,100978.59
2024-01-24T01:10:26.954Z,100992.78
2024-01-24T01:13:28.784Z,100977.50
2024-01-24T01:16:32.359Z,100967.16
2024-01-24T01:19:34.222Z,100969.38
2024-01-24T01:22:35.971Z,100956.34
2024-01-24T01:25:37.720Z,100966.69
2024-01-24T01:28:39.742Z,100965.81
2024-01-24T01:31:42.814Z,100965.34
2024-01-24T01:34:44.569Z,100966.69
2024-01-24T01:37:46.365Z,100964.63
2024-01-24T01:40:48.037Z,100956.03
2024-01-24T01:44:09.677Z,100954.69
2024-01-24T01:47:22.833Z,100953.31
2024-01-24T01:50:24.921Z,100938.53
2024-01-24T01:53:27.663Z,100931.09
2024-01-24T01:56:29.604Z,100929.06
2024-01-24T01:59:31.636Z,100923.44
2024-01-24T02:02:34.730Z,100931.41
2024-01-24T02:05:39.333Z,100916.94
2024-01-24T02:08:41.383Z,100908.00
2024-01-24T02:11:43.257Z,100911.78
2024-01-24T02:14:54.979Z,100909.50
2024-01-24T02:18:08.067Z,100920.50
2024-01-24T02:21:10.026Z,100913.06
2024-01-24T02:28:34.733Z,100895.88
2024-01-24T02:31:36.423Z,100890.72
2024-01-24T02:34:38.402Z,100896.28
2024-01-24T02:37:40.295Z,100900.72
2024-01-24T02:40:42.357Z,100918.53
2024-01-24T02:43:45.481Z,100906.34
2024-01-24T02:46:47.239Z,100913.13
2024-01-24T02:49:48.988Z,100926.25
2024-01-24T02:52:50.808Z,100920.25
2024-01-24T02:55:52.852Z,100915.75
2024-01-24T02:58:56.093Z,100921.16
2024-01-24T03:01:57.815Z,100924.00
2024-01-24T03:05:00.518Z,100892.75
2024-01-24T03:08:07.487Z,100902.66
2024-01-24T03:11:11.344Z,100914.09
2024-01-24T03:14:14.411Z,100906.34
2024-01-24T03:17:16.245Z,100898.03
2024-01-24T03:20:18.215Z,100891.69
2024-01-24T03:23:20.319Z,100891.53
2024-01-24T03:26:22.508Z,100894.63
2024-01-24T03:29:25.591Z,100885.06
2024-01-24T03:32:27.442Z,100906.06
2024-01-24T03:35:34.783Z,100921.22
2024-01-24T03:38:36.655Z,100914.56
2024-01-24T03:41:39.090Z,100923.09
2024-01-24T03:44:42.241Z,100909.78
2024-01-24T03:47:44.075Z,100916.91
2024-01-24T03:50:45.910Z,100920.59
2024-01-24T03:53:47.642Z,100923.09
2024-01-24T03:56:49.472Z,100915.66
2024-01-24T03:59:52.582Z,100916.91
2024-01-24T04:02:54.348Z,100903.44
2024-01-24T04:05:56.965Z,100886.59
2024-01-24T04:08:58.783Z,100872.06
2024-01-24T04:12:06.044Z,100882.59
2024-01-24T04:15:10.240Z,100869.16
2024-01-24T04:18:12.206Z,100858.94
2024-01-24T04:21:14.112Z,100843.97
2024-01-24T04:24:16.788Z,100845.94
2024-01-24T04:27:19.284Z,100850.16
2024-01-24T04:30:22.658Z,100856.63
2024-01-24T04:33:24.520Z,100852.31
2024-01-24T04:36:26.543Z,100836.38
2024-01-24T04:39:28.512Z,100831.88
2024-01-24T04:42:30.266Z,100829.56
2024-01-24T04:45:33.322Z,100832.66
2024-01-24T04:48:35.139Z,100819.75
2024-01-24T04:51:36.885Z,100833.53
2024-01-24T04:54:38.762Z,100846.06
2024-01-24T04:57:41.568Z,100848.09
2024-01-24T05:00:44.795Z,100854.09
2024-01-24T05:03:46.750Z,100850.84
2024-01-24T05:06:48.659Z,100858.00
2024-01-24T05:09:53.422Z,100850.91
2024-01-24T05:12:55.497Z,100863.13
2024-01-24T05:15:59.661Z,100850.31
2024-01-24T05:19:01.563Z,100840.25
2024-01-24T05:22:03.498Z,100834.00
2024-01-24T05:25:06.349Z,100825.25
2024-01-24T05:28:09.378Z,100835.75
2024-01-24T05:31:12.597Z,100830.34
2024-01-24T05:34:14.645Z,100827.72
2024-01-24T05:37:16.452Z,100809.00
2024-01-24T05:40:18.523Z,100807.28
2024-01-24T05:43:20.418Z,100815.75
2024-01-24T05:46:23.477Z,100813.72
2024-01-24T05:49:25.488Z,100829.19
2024-01-24T05:52:27.410Z,100823.66
2024-01-24T05:55:29.631Z,100826.78
2024-01-24T05:58:31.304Z,100839.41
2024-01-24T06:01:34.560Z,100824.13
2024-01-24T06:04:36.642Z,100814.69
2024-01-24T06:07:41.243Z,100812.53
2024-01-24T06:10:43.062Z,100803.56
2024-01-24T06:13:45.058Z,100805.72
2024-01-24T06:16:48.180Z,100816.88
2024-01-24T06:19:51.279Z,100814.09
2024-01-24T06:22:52.980Z,100813.19
2024-01-24T06:25:54.889Z,100799.56
2024-01-24T06:28:58.026Z,100825.44
2024-01-24T06:32:01.094Z,100826.22
2024-01-24T06:35:03.255Z,100825.31
2024-01-24T06:38:05.171Z,100828.41
2024-01-24T06:41:06.988Z,100808.66
2024-01-24T06:44:08.908Z,100823.34
2024-01-24T06:47:11.920Z,100823.03
2024-01-24T06:50:14.952Z,100803.53
2024-01-24T06:53:16.842Z,100795.34
2024-01-24T06:56:18.824Z,100808.66
2024-01-24T06:59:20.966Z,100806.63
2024-01-24T07:02:24.068Z,100812.31
2024-01-24T07:05:25.964Z,100831.19
2024-01-24T07:08:28.560Z,100828.22
2024-01-24T07:11:30.269Z,100833.81
2024-01-24T07:14:31.997Z,100846.69
2024-01-24T07:17:35.129Z,100850.09
2024-01-24T07:20:37.112Z,100854.75
2024-01-24T07:23:40.247Z,100867.75
2024-01-24T07:26:42.055Z,100846.84
2024-01-24T07:29:43.726Z,100846.09
2024-01-24T07:32:46.827Z,100866.81
2024-01-24T07:35:48.565Z,100871.00
2024-01-24T07:38:50.280Z,100874.88
2024-01-24T07:41:52.060Z,100885.72
2024-01-24T07:44:53.691Z,100869.31
2024-01-24T07:47:56.888Z,100891.63
2024-01-24T07:50:58.986Z,100899.03
2024-01-24T07:54:00.761Z,100881.69
2024-01-24T07:57:04.686Z,100888.81
2024-01-24T08:00:08.069Z,100902.41
2024-01-24T08:03:11.307Z,100905.81
2024-01-24T08:06:13.142Z,100893.13
2024-01-24T08:09:15.581Z,100909.22
2024-01-24T08:12:17.786Z,100905.06
2024-01-24T08:15:20.111Z,100929.34
2024-01-24T08:18:23.341Z,100922.53
2024-01-24T08:21:25.193Z,100924.09
2024-01-24T08:24:27.144Z,100915.72
2024-01-24T08:27:29.099Z,100926.25
2024-01-24T08:30:31.438Z,100919.44
2024-01-24T08:33:54.790Z,100929.66
2024-01-24T08:40:30.064Z,100938.31
2024-01-24T08:43:31.764Z,100948.22
2024-01-24T08:46:34.045Z,100951.50
2024-01-24T08:49:35.871Z,100972.22
2024-01-24T08:52:42.970Z,100972.69
2024-01-24T08:58:17.076Z,100978.28
2024-01-24T09:01:19.078Z,101000.56
2024-01-24T09:04:26.158Z,100994.69
2024-01-24T09:07:27.981Z,100990.81
2024-01-24T09:10:30.407Z,100992.50
2024-01-24T09:13:34.248Z,101001.81
2024-01-24T09:16:36.032Z,100993.28
2024-01-24T09:19:41.479Z,100997.31
2024-01-24T09:22:44.190Z,101001.94
2024-01-24T09:25:46.080Z,101002.91
2024-01-24T09:31:20.677Z,100999.66
2024-01-24T09:34:24.609Z,100998.66
2024-01-24T09:37:29.835Z,100992.72
2024-01-24T09:40:38.736Z,100986.56
2024-01-24T09:43:40.585Z,100989.56
2024-01-24T09:46:44.156Z,101000.84
2024-01-24T09:49:47.261Z,101015.84
2024-01-24T09:52:51.408Z,101018.69
2024-01-24T09:55:54.569Z,101029.81
2024-01-24T09:58:57.032Z,101038.19
2024-01-24T10:02:09.940Z,101033.59
2024-01-24T10:05:16.618Z,101030.56
2024-01-24T10:08:19.411Z,101035.13
2024-01-24T10:11:23.226Z,101039.44
2024-01-24T10:14:25.006Z,101044.53
2024-01-24T10:17:32.815Z,101054.97
2024-01-24T10:20:36.032Z,101065.41
2024-01-24T10:23:37.667Z,101053.94
2024-01-24T10:26:44.534Z,101052.34
2024-01-24T10:29:50.573Z,101059.84
2024-01-24T10:32:59.148Z,101061.97
2024-01-24T10:36:10.582Z,101047.06
2024-01-24T10:39:21.215Z,101053.16
2024-01-24T10:42:29.849Z,101075.50
2024-01-24T10:45:44.929Z,101084.22
2024-01-24T10:48:48.657Z,101081.13
2024-01-24T10:51:51.880Z,101085.09
2024-01-24T10:54:55.592Z,101087.75
2024-01-24T10:57:57.840Z,101093.31
2024-01-24T11:00:59.877Z,101093.50
2024-01-24T11:04:07.886Z,101108.78
2024-01-24T11:07:16.875Z,101106.19
2024-01-24T11:10:24.112Z,101136.44
2024-01-24T11:13:25.969Z,101114.00
2024-01-24T11:16:32.219Z,101108.38
2024-01-24T11:19:35.708Z,101090.81
2024-01-24T11:22:38.197Z,101096.16
2024-01-24T11:25:40.002Z,101090.22
2024-01-24T11:28:41.865Z,101094.72
2024-01-24T11:31:44.458Z,101102.81
2024-01-24T11:34:48.256Z,101093.16
2024-01-24T11:37:51.763Z,101085.44
2024-01-24T11:40:58.499Z,101083.72
2024-01-24T11:44:00.683Z,101079.81
2024-01-24T11:47:02.755Z,101082.00
2024-01-24T11:50:08.923Z,101091.78
2024-01-24T11:53:10.415Z,101096.28
2024-01-24T11:56:15.422Z,101096.78
2024-01-24T11:59:20.878Z,101100.00
2024-01-24T12:02:23.039Z,101100.94
2024-01-24T12:05:26.074Z,101127.44
2024-01-24T12:08:28.882Z,101128.38
2024-01-24T12:11:30.509Z,101123.44
2024-01-24T12:14:32.794Z,101128.00
2024-01-24T12:17:36.132Z,101133.03
2024-01-24T12:20:48.474Z,101136.38
2024-01-24T12:23:50.674Z,101133.13
2024-01-24T12:26:53.860Z,101139.78
2024-01-24T12:29:56.366Z,101152.38
2024-01-24T12:32:58.835Z,101155.59
2024-01-24T12:36:05.958Z,101160.16
2024-01-24T12:39:07.731Z,101166.38
2024-01-24T12:42:09.432Z,101172.91
2024-01-24T12:45:15.165Z,101191.22
2024-01-24T12:48:17.561Z,101191.59
2024-01-24T12:51:20.633Z,101197.06
2024-01-24T12:54:32.461Z,101199.25
2024-01-24T13:00:37.087Z,101242.41
2024-01-24T13:03:38.947Z,101225.97
2024-01-24T13:06:42.448Z,101220.41
2024-01-24T13:09:50.246Z,101203.50
2024-01-24T13:12:56.637Z,101220.38
2024-01-24T13:15:59.756Z,101242.56
2024-01-24T13:19:02.860Z,101246.47
2024-01-24T13:22:06.242Z,101255.38
2024-01-24T13:25:09.598Z,101221.75
2024-01-24T13:28:12.928Z,101225.50
2024-01-24T13:31:16.231Z,101237.94
2024-01-24T13:34:21.989Z,101240.09
2024-01-24T13:37:25.519Z,101255.16
2024-01-24T13:40:27.336Z,101251.28
2024-01-24T13:43:29.218Z,101256.56
2024-01-24T13:46:31.358Z,101250.03
2024-01-24T13:49:44.491Z,101263.56
2024-01-24T13:52:48.567Z,101274.25
2024-01-24T13:55:50.718Z,101269.91
2024-01-24T13:58:53.798Z,101272.41
2024-01-24T14:02:00.047Z,101278.16
2024-01-24T14:05:03.254Z,101297.34
2024-01-24T14:08:16.525Z,101274.56
2024-01-24T14:11:21.170Z,101284.78
2024-01-24T14:14:41.754Z,101298.75
2024-01-24T14:18:39.671Z,101294.88
2024-01-24T14:21:42.066Z,101295.94
2024-01-24T14:24:44.090Z,101289.63
2024-01-24T14:27:45.934Z,101279.22
2024-01-24T14:30:47.728Z,101299.66
2024-01-24T14:33:51.033Z,101304.19
2024-01-24T14:36:56.031Z,101304.16
2024-01-24T14:40:07.731Z,101307.84
2024-01-24T14:43:09.615Z,101319.81
2024-01-24T14:46:15.417Z,101327.09
2024-01-24T14:49:38.522Z,101328.16
2024-01-24T14:53:45.568Z,101335.00
2024-01-24T14:56:48.641Z,101335.91
2024-01-24T14:59:51.141Z,101323.81
2024-01-24T15:02:52.940Z,101327.66
2024-01-24T15:05:54.718Z,101332.16
2024-01-24T15:08:57.847Z,101342.53
2024-01-24T15:11:59.611Z,101345.19
2024-01-24T15:15:20.343Z,101348.72
2024-01-24T15:20:38.534Z,101343.22
2024-01-24T15:23:45.035Z,101349.97
2024-01-24T15:26:46.841Z,101352.44
2024-01-24T15:29:49.436Z,101361.69
2024-01-24T15:32:51.767Z,101350.56
2024-01-24T15:35:54.905Z,101352.03
2024-01-24T15:38:56.720Z,101366.44
2024-01-24T15:42:01.576Z,101365.28
2024-01-24T15:45:04.063Z,101359.69
2024-01-24T15:48:06.751Z,101386.28
2024-01-24T15:51:21.037Z,101380.97
2024-01-24T15:54:22.922Z,101399.94
2024-01-24T15:57:24.900Z,101402.41
2024-01-24T16:00:26.788Z,101395.97
2024-01-24T16:03:33.559Z,101398.09
2024-01-24T16:06:36.878Z,101399.06
2024-01-24T16:09:39.655Z,101414.03
2024-01-24T16:12:41.640Z,101430.69
2024-01-24T16:16:03.488Z,101418.13
2024-01-24T16:19:22.561Z,101420.44
2024-01-24T16:22:32.831Z,101420.22
2024-01-24T16:25:38.280Z,101430.09
2024-01-24T16:28:40.443Z,101428.00
2024-01-24T16:31:42.282Z,101425.03
2024-01-24T16:34:44.131Z,101426.31
2024-01-24T16:37:47.250Z,101439.97
2024-01-24T16:40:49.234Z,101444.03
2024-01-24T16:43:51.583Z,101438.28
2024-01-24T16:46:57.964Z,101431.91
2024-01-24T16:49:59.840Z,101433.25
2024-01-24T16:53:03.128Z,101438.63
2024-01-24T16:56:05.150Z,101457.56
2024-01-24T16:59:07.310Z,101451.34
2024-01-24T17:02:34.841Z,101454.66
2024-01-24T17:05:44.320Z,101464.06
2024-01-24T17:08:51.979Z,101462.44
2024-01-24T17:11:53.733Z,101474.69
2024-01-24T17:15:14.644Z,101478.16
2024-01-24T17:18:16.662Z,101484.16
2024-01-24T17:21:23.217Z,101474.81
2024-01-24T17:24:46.434Z,101478.38
2024-01-24T17:27:48.330Z,101475.69
2024-01-24T17:30:51.863Z,101473.22
2024-01-24T17:33:53.743Z,101481.22
2024-01-24T17:36:55.649Z,101496.00
2024-01-24T17:39:58.719Z,101488.88
2024-01-24T17:43:00.581Z,101490.69
2024-01-24T17:46:02.519Z,101491.09
2024-01-24T17:49:04.472Z,101489.69
2024-01-24T17:52:06.783Z,101498.88
2024-01-24T17:55:10.600Z,101506.44
2024-01-24T17:58:12.653Z,101515.56
2024-01-24T18:01:14.495Z,101522.53
2024-01-24T18:04:16.399Z,101518.41
2024-01-24T18:07:20.656Z,101520.88
2024-01-24T18:10:26.206Z,101533.09
2024-01-24T18:13:29.189Z,101536.94
2024-01-24T18:16:31.070Z,101548.72
2024-01-24T18:19:33.624Z,101540.03
2024-01-24T18:22:35.749Z,101533.16
2024-01-24T18:25:42.506Z,101553.16
2024-01-24T18:28:44.473Z,101554.66
2024-01-24T18:31:46.495Z,101555.66
2024-01-24T18:34:48.598Z,101544.13
2024-01-24T18:37:50.708Z,101549.75
2024-01-24T18:40:54.109Z,101552.81
2024-01-24T18:43:55.989Z,101565.94
2024-01-24T18:46:58.650Z,101571.66
2024-01-24T18:50:01.080Z,101560.25
2024-01-24T18:53:04.071Z,101555.31
2024-01-24T18:56:08.382Z,101563.28
2024-01-24T18:59:13.868Z,101568.22
2024-01-24T19:02:18.441Z,101576.72
2024-01-24T19:05:26.652Z,101580.41
2024-01-24T19:08:39.606Z,101581.22
2024-01-24T19:11:55.252Z,101580.19
2024-01-24T19:14:57.605Z,101585.16
2024-01-24T19:18:07.268Z,101584.63
2024-01-24T19:21:18.382Z,101576.94
2024-01-24T19:24:23.722Z,101577.75
2024-01-24T19:27:27.256Z,101585.28
2024-01-24T19:30:29.589Z,101577.59
2024-01-24T19:33:34.256Z,101570.31
2024-01-24T19:36:36.571Z,101556.28
2024-01-24T19:39:40.302Z,101562.84
2024-01-24T19:42:47.535Z,101559.28
2024-01-24T19:45:49.864Z,101554.22
2024-01-24T19:48:54.918Z,101562.28
2024-01-24T19:51:57.111Z,101560.94
2024-01-24T19:54:58.972Z,101543.00
2024-01-24T19:58:03.301Z,101537.13
2024-01-24T20:01:05.887Z,101543.69
2024-01-24T20:04:08.074Z,101536.22
2024-01-24T20:07:14.374Z,101528.78
2024-01-24T20:10:16.859Z,101525.78
2024-01-24T20:13:21.780Z,101531.19
2024-01-24T20:16:31.303Z,101523.31
2024-01-24T20:19:33.167Z,101539.28
2024-01-24T20:22:35.415Z,101532.50
2024-01-24T20:25:37.150Z,101529.88
2024-01-24T20:28:40.524Z,101523.19
2024-01-24T20:31:42.226Z,101518.69
2024-01-24T20:34:44.197Z,101533.44
2024-01-24T20:37:46.133Z,101540.34
2024-01-24T20:40:47.850Z,101541.84
2024-01-24T20:43:50.993Z,101530.09
2024-01-24T20:46:52.699Z,101533.63
2024-01-24T20:49:56.085Z,101530.84
2024-01-24T20:52:57.938Z,101536.25
2024-01-24T20:55:59.894Z,101540.75
2024-01-24T20:59:02.924Z,101534.94
2024-01-24T21:02:05.139Z,101540.78
2024-01-24T21:05:07.954Z,101537.06
2024-01-24T21:08:12.671Z,101527.31
2024-01-24T21:11:17.771Z,101514.16
2024-01-24T21:14:21.349Z,101522.81
2024-01-24T21:17:23.072Z,101527.06
2024-01-24T21:20:24.984Z,101521.56
2024-01-24T21:23:27.177Z,101536.88
2024-01-24T21:26:28.938Z,101531.59
2024-01-24T21:29:31.953Z,101539.28
2024-01-24T21:32:34.462Z,101526.59
2024-01-24T21:35:36.884Z,101542.34
2024-01-24T21:38:38.655Z,101542.31
2024-01-24T21:41:40.405Z,101537.78
2024-01-24T21:44:44.046Z,101558.03
2024-01-24T21:47:46.140Z,101551.81
2024-01-24T21:50:47.964Z,101553.50
2024-01-24T21:53:49.728Z,101548.63
2024-01-24T21:56:53.172Z,101555.72
2024-01-24T21:59:56.189Z,101549.56
2024-01-24T22:02:57.868Z,101547.88
2024-01-24T22:05:59.518Z,101551.28
2024-01-24T22:09:01.483Z,101554.84
2024-01-24T22:12:03.544Z,101554.25
2024-01-24T22:15:09.144Z,101562.50
2024-01-24T22:18:11.917Z,101542.66
2024-01-24T22:21:13.979Z,101536.72
2024-01-24T22:24:15.807Z,101549.22
2024-01-24T22:27:17.798Z,101558.31
2024-01-24T22:30:20.834Z,101556.31
2024-01-24T22:33:23.039Z,101558.38
2024-01-24T22:36:30.054Z,101546.56
2024-01-24T22:39:31.899Z,101546.91
2024-01-24T22:42:33.631Z,101559.63
2024-01-24T22:45:36.827Z,101552.16
2024-01-24T22:48:38.875Z,101548.47
2024-01-24T22:51:40.972Z,101552.56
2024-01-24T22:54:42.880Z,101554.81
2024-01-24T22:57:49.997Z,101547.72
2024-01-24T23:00:53.924Z,101555.38
2024-01-24T23:03:55.906Z,101546.91
2024-01-24T23:06:57.802Z,101548.75
2024-01-24T23:09:59.871Z,101557.41
2024-01-24T23:13:01.681Z,101555.16
2024-01-24T23:16:05.813Z,101556.88
2024-01-24T23:19:08.066Z,101552.00
2024-01-24T23:22:09.930Z,101560.56
2024-01-24T23:25:11.723Z,101563.97
2024-01-24T23:28:15.915Z,101565.66
2024-01-24T23:31:19.055Z,101564.91
2024-01-24T23:34:20.978Z,101560.78
2024-01-24T23:37:22.920Z,101555.94
2024-01-24T23:40:24.734Z,101558.78
2024-01-24T23:43:26.662Z,101554.06
2024-01-24T23:46:34.283Z,101552.75
2024-01-24T23:49:37.156Z,101561.19
2024-01-24T23:52:39.115Z,101562.44
2024-01-24T23:55:40.896Z,101567.38
2024-01-24T23:58:42.570Z,101564.50
